Terminal Aerodrome Forecast
Issued by NWS

Home | Current Version | Previous Version | Text Only | Print | Product List | Glossary On
Versions: 1 2 3 4 5 6 7 8 9 10 11 12 13 14
000
FTAK31 PAJN 281100
TAFAYA
TAF
PAYA 281135Z 2812/2912 33006KT P6SM FEW120
     FM281800 VRB04KT P6SM SCT050 BKN070 OVC090
     FM282100 10006KT P6SM VCSH BKN050
     FM290000 10008KT P6SM -SHRA SCT025 OVC050
     FM290300 VRB04KT P6SM -SHRA BKN025 OVC050
     FM290600 12004KT 6SM SHRA BKN015 OVC025
      AMD LTD TO CLD VIS AND WIND 2901/2910=

USA.gov is the U.S. government's official web portal to all federal, state and local government web resources and services.